Time;durP1;ratioP1;P1;durP2;ratioP2;P2;SDS_P1;SDS_P2;PMS_P1;PMS_P2;Temp;Humidity;BMP_temperature;BMP_pressure;BME280_temperature;BME280_humidity;BME280_pressure;Samples;Min_cycle;Max_cycle;Signal;HPM_P1;HPM_P2
2023/07/03 00:01:49;;;;;;;16.17;3.58;;;;;;;;;;4995882;28;20085;-75
2023/07/03 00:04:14;;;;;;;13.10;3.72;;;;;;;;;;4994085;28;20028;-76
2023/07/03 00:06:40;;;;;;;10.68;2.90;;;;;;;;;;4995480;28;20026;-75
2023/07/03 00:09:06;;;;;;;9.48;3.13;;;;;;;;;;4994144;28;20022;-75
2023/07/03 00:11:32;;;;;;;10.95;2.97;;;;;;;;;;4996189;28;20026;-75
2023/07/03 00:13:58;;;;;;;9.77;2.92;;;;;;;;;;4994933;28;20084;-75
2023/07/03 00:16:23;;;;;;;8.90;2.47;;;;;;;;;;4995362;28;20522;-74
2023/07/03 00:18:48;;;;;;;9.50;3.13;;;;;;;;;;4995367;28;20030;-75
2023/07/03 00:21:14;;;;;;;9.48;3.90;;;;;;;;;;4993781;28;20446;-74
2023/07/03 00:23:39;;;;;;;10.40;3.60;;;;;;;;;;4994286;28;20032;-74
2023/07/03 00:26:05;;;;;;;13.45;3.47;;;;;;;;;;4994470;28;20053;-75
2023/07/03 00:28:30;;;;;;;15.65;3.72;;;;;;;;;;4993976;28;20026;-75
2023/07/03 00:30:55;;;;;;;14.95;3.85;;;;;;;;;;4995231;28;20033;-75
2023/07/03 00:33:21;;;;;;;12.40;4.22;;;;;;;;;;4994796;28;20103;-75
2023/07/03 00:35:46;;;;;;;14.88;3.55;;;;;;;;;;4995395;28;20030;-75
2023/07/03 00:38:11;;;;;;;17.80;3.40;;;;;;;;;;4994764;28;20477;-75
2023/07/03 00:40:37;;;;;;;18.05;4.80;;;;;;;;;;4994965;28;20026;-74
2023/07/03 00:43:03;;;;;;;14.63;3.65;;;;;;;;;;4995069;28;20033;-74
2023/07/03 00:45:29;;;;;;;16.50;3.90;;;;;;;;;;4994765;28;20105;-74
2023/07/03 00:47:55;;;;;;;11.18;3.45;;;;;;;;;;4993537;28;20121;-75
2023/07/03 00:50:20;;;;;;;10.88;4.00;;;;;;;;;;4993681;28;20400;-75
2023/07/03 00:52:51;;;;;;;16.10;4.03;;;;;;;;;;4977317;28;20072;-74
2023/07/03 00:55:17;;;;;;;13.57;3.80;;;;;;;;;;4977391;28;20018;-75
2023/07/03 00:57:42;;;;;;;14.40;4.00;;;;;;;;;;4994954;28;20037;-75
2023/07/03 01:00:09;;;;;;;16.15;3.97;;;;;;;;;;4993195;28;20484;-75
2023/07/03 01:02:39;;;;;;;14.80;3.85;;;;;;;;;;4993551;28;20030;-74
2023/07/03 01:05:14;;;;;;;9.25;4.22;;;;;;;;;;4993622;28;20486;-75
2023/07/03 01:07:39;;;;;;;17.35;3.95;;;;;;;;;;4993552;28;20042;-74
2023/07/03 01:10:09;;;;;;;12.80;3.80;;;;;;;;;;4993272;28;20077;-75
2023/07/03 01:12:38;;;;;;;19.20;4.40;;;;;;;;;;4993341;28;20385;-75
2023/07/03 01:15:07;;;;;;;15.52;5.35;;;;;;;;;;4993017;28;20508;-74
2023/07/03 01:17:33;;;;;;;21.70;4.63;;;;;;;;;;4992918;28;20030;-74
2023/07/03 01:20:00;;;;;;;13.50;3.65;;;;;;;;;;4993079;28;20030;-75
2023/07/03 01:22:29;;;;;;;10.25;3.70;;;;;;;;;;4994363;28;20105;-75
2023/07/03 01:25:00;;;;;;;14.95;4.13;;;;;;;;;;4976471;28;20030;-75
2023/07/03 01:27:28;;;;;;;10.45;3.33;;;;;;;;;;4993256;28;20440;-75
2023/07/03 01:29:54;;;;;;;16.40;3.22;;;;;;;;;;4992550;28;20104;-75
2023/07/03 01:32:21;;;;;;;8.05;2.17;;;;;;;;;;4994250;28;20116;-75
2023/07/03 01:34:48;;;;;;;10.10;2.83;;;;;;;;;;4993162;28;20105;-75
2023/07/03 01:37:14;;;;;;;12.38;2.40;;;;;;;;;;4992715;28;20484;-75
2023/07/03 01:39:43;;;;;;;13.43;3.22;;;;;;;;;;4992695;28;20029;-75
2023/07/03 01:42:10;;;;;;;10.40;2.85;;;;;;;;;;4992871;28;20018;-74
2023/07/03 01:44:35;;;;;;;10.18;3.22;;;;;;;;;;4976674;28;20399;-75
2023/07/03 01:47:06;;;;;;;6.32;2.95;;;;;;;;;;4992539;28;20022;-75
2023/07/03 01:49:32;;;;;;;13.73;2.80;;;;;;;;;;5054523;23;20049;-68
2023/07/03 01:52:15;;;;;;;11.73;2.83;;;;;;;;;;5014168;28;20439;-68
2023/07/03 01:54:58;;;;;;;9.00;2.60;;;;;;;;;;5013854;28;20510;-68
2023/07/03 01:57:43;;;;;;;9.60;2.65;;;;;;;;;;5013929;28;20025;-68
2023/07/03 02:00:12;;;;;;;24.73;3.70;;;;;;;;;;5013441;28;20033;-68
2023/07/03 02:02:38;;;;;;;18.33;4.55;;;;;;;;;;5012444;28;20061;-68
2023/07/03 02:05:10;;;;;;;10.02;3.70;;;;;;;;;;5012788;28;20392;-68
2023/07/03 02:07:37;;;;;;;10.00;3.55;;;;;;;;;;5012130;28;20022;-68
2023/07/03 02:10:03;;;;;;;19.88;3.20;;;;;;;;;;5012314;28;20618;-68
2023/07/03 02:12:29;;;;;;;11.90;3.00;;;;;;;;;;5012240;28;20040;-68
2023/07/03 02:14:58;;;;;;;13.90;3.05;;;;;;;;;;5011945;28;20022;-69
2023/07/03 02:17:23;;;;;;;18.23;2.78;;;;;;;;;;5011656;28;20022;-68
2023/07/03 02:19:49;;;;;;;15.43;3.83;;;;;;;;;;5011405;28;20561;-68
2023/07/03 02:22:14;;;;;;;12.55;3.17;;;;;;;;;;4995765;28;20033;-68
2023/07/03 02:24:39;;;;;;;10.05;2.67;;;;;;;;;;4992605;28;20034;-68
2023/07/03 02:27:05;;;;;;;21.52;4.25;;;;;;;;;;5005751;28;20032;-68
2023/07/03 02:29:30;;;;;;;11.27;3.08;;;;;;;;;;5012253;28;20022;-68
2023/07/03 02:31:56;;;;;;;20.52;3.92;;;;;;;;;;5006827;28;20032;-68
2023/07/03 02:34:21;;;;;;;14.68;3.10;;;;;;;;;;4997270;28;20076;-68
2023/07/03 02:36:48;;;;;;;8.88;2.10;;;;;;;;;;5013040;28;20022;-68
2023/07/03 02:39:13;;;;;;;6.93;1.77;;;;;;;;;;5011708;28;20152;-68
2023/07/03 02:41:38;;;;;;;7.05;2.60;;;;;;;;;;5008909;28;20522;-68
2023/07/03 02:44:04;;;;;;;7.05;1.80;;;;;;;;;;4993248;28;20032;-68
2023/07/03 02:46:29;;;;;;;8.75;3.10;;;;;;;;;;5010275;28;20391;-68
2023/07/03 02:48:55;;;;;;;10.48;2.13;;;;;;;;;;5012629;28;20033;-68
2023/07/03 02:51:20;;;;;;;8.73;2.28;;;;;;;;;;5017133;28;20037;-68
2023/07/03 02:53:45;;;;;;;6.75;2.33;;;;;;;;;;5016664;28;20036;-68
2023/07/03 02:56:11;;;;;;;10.65;2.35;;;;;;;;;;5016751;28;20029;-68
2023/07/03 02:58:36;;;;;;;8.95;3.13;;;;;;;;;;5016702;28;20391;-68
2023/07/03 03:01:02;;;;;;;9.00;2.22;;;;;;;;;;5016696;28;20026;-68
2023/07/03 03:03:28;;;;;;;7.13;2.15;;;;;;;;;;5016493;28;20025;-69
2023/07/03 03:05:55;;;;;;;12.88;2.70;;;;;;;;;;4998823;28;20039;-68
2023/07/03 03:08:21;;;;;;;10.30;2.65;;;;;;;;;;5016541;28;20026;-68
2023/07/03 03:10:47;;;;;;;7.68;2.03;;;;;;;;;;5016945;28;20491;-68
2023/07/03 03:13:12;;;;;;;13.93;2.30;;;;;;;;;;5016963;28;20032;-68
2023/07/03 03:15:37;;;;;;;12.05;2.40;;;;;;;;;;5016907;28;20025;-68
2023/07/03 03:18:03;;;;;;;6.10;2.22;;;;;;;;;;5016797;28;20028;-68
2023/07/03 03:20:28;;;;;;;6.88;3.13;;;;;;;;;;5015542;28;20394;-68
2023/07/03 03:22:54;;;;;;;8.63;2.47;;;;;;;;;;5016075;28;20525;-68
2023/07/03 03:25:19;;;;;;;14.60;3.60;;;;;;;;;;5016014;28;20028;-68
2023/07/03 03:27:45;;;;;;;8.13;3.78;;;;;;;;;;5015732;28;20143;-68
2023/07/03 03:30:10;;;;;;;5.57;2.65;;;;;;;;;;5016107;28;20077;-68
2023/07/03 03:32:36;;;;;;;14.88;4.15;;;;;;;;;;5016100;28;20037;-68
2023/07/03 03:35:01;;;;;;;15.13;3.33;;;;;;;;;;5013197;28;20426;-69
2023/07/03 03:37:27;;;;;;;14.15;3.00;;;;;;;;;;5015983;28;20034;-68
2023/07/03 03:39:52;;;;;;;20.13;3.35;;;;;;;;;;5014593;28;20061;-69
2023/07/03 03:42:17;;;;;;;10.68;3.28;;;;;;;;;;4998765;28;20073;-68
2023/07/03 03:44:43;;;;;;;12.40;3.40;;;;;;;;;;4996256;28;20068;-68
2023/07/03 03:47:08;;;;;;;10.00;2.30;;;;;;;;;;4996779;28;20026;-69
2023/07/03 03:49:33;;;;;;;8.38;3.85;;;;;;;;;;4994499;28;20038;-68
2023/07/03 03:51:59;;;;;;;11.43;2.15;;;;;;;;;;5015732;28;20030;-68
2023/07/03 03:54:26;;;;;;;6.00;2.20;;;;;;;;;;5015358;28;20088;-68
2023/07/03 03:56:51;;;;;;;6.78;2.20;;;;;;;;;;5014687;28;20036;-68
2023/07/03 03:59:17;;;;;;;7.35;2.85;;;;;;;;;;5016248;28;20014;-68
2023/07/03 04:01:42;;;;;;;9.00;2.35;;;;;;;;;;5014587;28;20026;-68
2023/07/03 04:04:08;;;;;;;10.07;2.63;;;;;;;;;;5015728;28;20025;-69
2023/07/03 04:06:35;;;;;;;4.50;2.28;;;;;;;;;;5015461;28;20037;-68
2023/07/03 04:09:01;;;;;;;16.02;3.63;;;;;;;;;;5015537;28;20026;-68
2023/07/03 04:11:27;;;;;;;16.48;3.00;;;;;;;;;;5013757;28;20615;-69
2023/07/03 04:13:53;;;;;;;9.50;2.97;;;;;;;;;;5002976;28;20081;-69
2023/07/03 04:16:18;;;;;;;5.65;2.50;;;;;;;;;;5015174;28;20018;-68
2023/07/03 04:18:43;;;;;;;9.52;3.35;;;;;;;;;;5014948;28;20018;-69
2023/07/03 04:21:09;;;;;;;17.67;4.05;;;;;;;;;;5014984;28;20395;-68
2023/07/03 04:23:34;;;;;;;11.52;2.92;;;;;;;;;;5008084;28;20044;-68
2023/07/03 04:26:00;;;;;;;17.38;3.33;;;;;;;;;;4995542;28;20028;-69
2023/07/03 04:28:26;;;;;;;10.73;2.88;;;;;;;;;;4993552;28;20029;-69
2023/07/03 04:30:51;;;;;;;13.75;2.55;;;;;;;;;;5013408;28;20042;-68
2023/07/03 04:33:17;;;;;;;17.50;2.80;;;;;;;;;;5014659;28;20028;-69
2023/07/03 04:35:43;;;;;;;12.38;2.95;;;;;;;;;;5013398;28;20041;-69
2023/07/03 04:38:08;;;;;;;15.13;3.05;;;;;;;;;;5013806;28;20484;-68
2023/07/03 04:40:34;;;;;;;11.35;3.15;;;;;;;;;;5014477;28;20028;-69
2023/07/03 04:43:00;;;;;;;11.93;3.40;;;;;;;;;;5014667;28;20037;-69
2023/07/03 04:45:26;;;;;;;12.70;3.05;;;;;;;;;;5013046;28;20060;-69
2023/07/03 04:47:52;;;;;;;10.98;3.03;;;;;;;;;;5013611;28;20037;-69
2023/07/03 04:50:17;;;;;;;9.18;2.95;;;;;;;;;;5013271;28;20042;-69
2023/07/03 04:52:45;;;;;;;16.27;3.45;;;;;;;;;;5014429;28;20113;-68
2023/07/03 04:55:11;;;;;;;8.13;2.65;;;;;;;;;;5013202;28;20029;-69
2023/07/03 04:57:38;;;;;;;11.50;2.72;;;;;;;;;;5013215;28;20058;-69
2023/07/03 05:00:14;;;;;;;13.35;2.78;;;;;;;;;;5014071;28;20021;-69
2023/07/03 05:02:41;;;;;;;10.75;3.03;;;;;;;;;;5011902;28;20056;-69
2023/07/03 05:05:06;;;;;;;12.88;3.63;;;;;;;;;;5012843;28;20021;-69
2023/07/03 05:07:32;;;;;;;17.02;4.85;;;;;;;;;;5012687;28;20491;-68
2023/07/03 05:09:57;;;;;;;13.80;2.70;;;;;;;;;;5013998;28;20014;-69
2023/07/03 05:12:22;;;;;;;10.65;3.60;;;;;;;;;;5003444;28;20038;-69
2023/07/03 05:14:48;;;;;;;8.90;2.17;;;;;;;;;;4994460;28;20028;-68
2023/07/03 05:17:13;;;;;;;9.75;2.47;;;;;;;;;;4994984;28;20028;-69
2023/07/03 05:19:38;;;;;;;12.15;3.33;;;;;;;;;;4994559;28;20388;-68
2023/07/03 05:22:04;;;;;;;6.60;3.13;;;;;;;;;;5011980;28;20026;-69
2023/07/03 05:24:29;;;;;;;12.60;2.60;;;;;;;;;;5014520;28;20029;-68
2023/07/03 05:26:55;;;;;;;10.52;2.60;;;;;;;;;;5014835;28;20030;-69
2023/07/03 05:29:21;;;;;;;11.27;2.80;;;;;;;;;;5014014;28;20032;-68
2023/07/03 05:31:46;;;;;;;6.72;3.13;;;;;;;;;;5014274;28;20030;-68
2023/07/03 05:34:11;;;;;;;13.45;3.13;;;;;;;;;;5014330;28;20403;-68
2023/07/03 05:36:37;;;;;;;12.43;3.35;;;;;;;;;;5014279;28;20025;-68
2023/07/03 05:39:02;;;;;;;4.55;2.20;;;;;;;;;;5015036;28;20391;-68
2023/07/03 05:41:28;;;;;;;11.55;2.45;;;;;;;;;;5015143;28;20022;-68
2023/07/03 05:43:53;;;;;;;14.52;2.72;;;;;;;;;;5015051;28;20483;-68
2023/07/03 05:46:18;;;;;;;10.77;2.72;;;;;;;;;;5015774;28;20391;-69
2023/07/03 05:48:44;;;;;;;7.57;2.00;;;;;;;;;;5013310;28;20026;-68
2023/07/03 05:51:09;;;;;;;11.63;2.17;;;;;;;;;;5014448;28;20033;-68
2023/07/03 05:53:35;;;;;;;6.72;2.15;;;;;;;;;;5015072;28;20467;-68
2023/07/03 05:56:01;;;;;;;7.57;2.40;;;;;;;;;;5015044;28;20026;-68
2023/07/03 05:58:27;;;;;;;5.82;2.17;;;;;;;;;;5014173;28;20068;-68
2023/07/03 06:00:52;;;;;;;5.97;1.83;;;;;;;;;;5014221;28;20029;-67
2023/07/03 06:03:18;;;;;;;5.63;1.60;;;;;;;;;;5014072;28;20097;-68
2023/07/03 06:05:44;;;;;;;9.85;1.90;;;;;;;;;;5012247;28;20157;-67
2023/07/03 06:08:10;;;;;;;6.20;1.92;;;;;;;;;;5013699;28;20101;-68
2023/07/03 06:10:36;;;;;;;7.50;2.47;;;;;;;;;;5014441;28;20029;-67
2023/07/03 06:13:01;;;;;;;3.72;1.65;;;;;;;;;;5014142;28;20018;-68
2023/07/03 06:15:27;;;;;;;11.50;2.20;;;;;;;;;;5014151;28;20075;-68
2023/07/03 06:17:52;;;;;;;5.72;2.00;;;;;;;;;;5014337;28;20026;-68
2023/07/03 06:20:17;;;;;;;8.13;1.88;;;;;;;;;;5013838;28;20031;-68
2023/07/03 06:22:43;;;;;;;21.50;3.25;;;;;;;;;;5014309;28;20380;-68
2023/07/03 06:25:09;;;;;;;8.65;2.15;;;;;;;;;;5012966;28;20032;-68
2023/07/03 06:27:34;;;;;;;5.70;1.67;;;;;;;;;;5013716;28;20022;-68
2023/07/03 06:30:00;;;;;;;8.10;2.03;;;;;;;;;;5012961;28;20029;-68
2023/07/03 06:32:25;;;;;;;6.70;1.50;;;;;;;;;;5013568;28;20057;-68
2023/07/03 06:34:51;;;;;;;8.05;1.60;;;;;;;;;;5012649;28;20022;-68
2023/07/03 06:37:16;;;;;;;8.90;1.77;;;;;;;;;;5013452;28;20071;-68
2023/07/03 06:39:41;;;;;;;5.35;1.80;;;;;;;;;;5014000;28;20553;-68
2023/07/03 06:42:07;;;;;;;8.07;1.92;;;;;;;;;;5013749;28;20030;-68
2023/07/03 06:44:32;;;;;;;8.60;2.17;;;;;;;;;;5013451;28;20034;-68
2023/07/03 06:46:58;;;;;;;10.65;2.30;;;;;;;;;;5013478;28;20026;-68
2023/07/03 06:49:24;;;;;;;7.00;2.97;;;;;;;;;;5012878;28;20018;-68
2023/07/03 06:51:53;;;;;;;12.18;2.53;;;;;;;;;;5013663;28;20033;-68
2023/07/03 06:54:18;;;;;;;10.57;2.65;;;;;;;;;;5013642;28;20104;-68
2023/07/03 06:56:43;;;;;;;12.23;2.67;;;;;;;;;;5013548;28;20032;-68
2023/07/03 06:59:09;;;;;;;12.40;2.50;;;;;;;;;;5013491;28;20022;-68
2023/07/03 07:01:34;;;;;;;12.20;2.90;;;;;;;;;;5012370;28;20394;-68
2023/07/03 07:04:00;;;;;;;12.88;2.42;;;;;;;;;;5013486;28;20022;-68
2023/07/03 07:06:27;;;;;;;12.80;2.28;;;;;;;;;;5013120;28;20467;-67
2023/07/03 07:08:52;;;;;;;8.07;2.25;;;;;;;;;;4992555;28;20094;-68
2023/07/03 07:11:26;;;;;;;18.27;3.88;;;;;;;;;;4993677;28;20149;-68
2023/07/03 07:13:52;;;;;;;11.80;2.45;;;;;;;;;;4994567;28;20435;-68
2023/07/03 07:16:19;;;;;;;9.13;2.38;;;;;;;;;;4993322;28;20037;-68
2023/07/03 07:18:47;;;;;;;10.98;2.20;;;;;;;;;;4994483;28;20526;-68
2023/07/03 07:21:12;;;;;;;11.05;2.00;;;;;;;;;;5009036;28;20034;-68
2023/07/03 07:23:37;;;;;;;8.65;2.83;;;;;;;;;;5012019;28;20076;-67
2023/07/03 07:26:03;;;;;;;5.60;1.98;;;;;;;;;;5006681;28;20026;-68
2023/07/03 07:28:28;;;;;;;9.77;2.60;;;;;;;;;;4993869;28;20019;-68
2023/07/03 07:30:54;;;;;;;11.13;2.47;;;;;;;;;;4997141;28;20373;-67
2023/07/03 07:33:20;;;;;;;9.23;3.00;;;;;;;;;;5013268;28;20021;-68
2023/07/03 07:35:46;;;;;;;11.80;2.47;;;;;;;;;;5014327;28;20100;-68
2023/07/03 07:38:13;;;;;;;10.25;2.60;;;;;;;;;;5017076;28;20056;-68
2023/07/03 07:40:38;;;;;;;13.68;2.47;;;;;;;;;;5017498;28;20022;-67
2023/07/03 07:43:04;;;;;;;7.05;1.95;;;;;;;;;;5016724;28;20501;-67
2023/07/03 07:45:30;;;;;;;10.85;3.20;;;;;;;;;;5016691;28;20438;-67
2023/07/03 07:47:55;;;;;;;7.80;2.17;;;;;;;;;;5015318;28;20022;-67
2023/07/03 07:50:21;;;;;;;9.85;2.78;;;;;;;;;;5016254;28;20040;-67
2023/07/03 07:52:46;;;;;;;11.38;2.20;;;;;;;;;;5016476;28;20033;-67
2023/07/03 07:55:12;;;;;;;6.95;2.15;;;;;;;;;;5015158;28;20026;-67
2023/07/03 07:57:37;;;;;;;6.70;2.40;;;;;;;;;;5014897;28;20049;-67
2023/07/03 08:00:04;;;;;;;8.50;2.70;;;;;;;;;;5018325;28;20095;-67
2023/07/03 08:02:30;;;;;;;11.55;3.20;;;;;;;;;;5015961;28;20037;-67
2023/07/03 08:04:56;;;;;;;10.13;2.53;;;;;;;;;;5016044;28;20021;-67
2023/07/03 08:07:21;;;;;;;7.05;2.50;;;;;;;;;;5016095;28;20030;-67
2023/07/03 08:09:47;;;;;;;12.27;3.20;;;;;;;;;;5015021;28;20369;-67
2023/07/03 08:12:12;;;;;;;5.47;1.98;;;;;;;;;;5015679;28;20029;-67
2023/07/03 08:14:37;;;;;;;12.63;2.10;;;;;;;;;;5014091;28;20030;-67
2023/07/03 08:17:03;;;;;;;9.68;3.25;;;;;;;;;;5015751;28;20387;-67
2023/07/03 08:19:29;;;;;;;4.90;1.92;;;;;;;;;;5016080;28;20013;-67
2023/07/03 08:21:55;;;;;;;11.38;2.15;;;;;;;;;;5016028;28;20033;-67
2023/07/03 08:24:21;;;;;;;4.03;1.70;;;;;;;;;;5014548;28;20076;-67
2023/07/03 08:26:49;;;;;;;6.15;1.70;;;;;;;;;;5015111;28;20030;-68
2023/07/03 08:29:14;;;;;;;4.13;2.92;;;;;;;;;;5014560;28;20033;-67
2023/07/03 08:31:40;;;;;;;8.40;2.35;;;;;;;;;;5015602;28;20030;-67
2023/07/03 08:34:05;;;;;;;7.32;1.95;;;;;;;;;;5014438;28;20030;-68
2023/07/03 08:36:30;;;;;;;7.53;2.50;;;;;;;;;;5016011;28;20377;-68
2023/07/03 08:38:56;;;;;;;14.10;2.55;;;;;;;;;;5015252;28;20025;-67
2023/07/03 08:41:21;;;;;;;9.63;2.40;;;;;;;;;;5015596;28;20026;-68
2023/07/03 08:43:48;;;;;;;8.20;2.75;;;;;;;;;;5014977;28;20365;-67
2023/07/03 08:46:18;;;;;;;10.90;2.75;;;;;;;;;;5013803;28;20534;-68
2023/07/03 08:48:44;;;;;;;8.15;2.97;;;;;;;;;;5012712;28;20463;-68
2023/07/03 08:51:14;;;;;;;15.65;2.97;;;;;;;;;;5015095;28;20108;-68
2023/07/03 08:53:41;;;;;;;9.05;2.53;;;;;;;;;;4999033;28;20076;-69
2023/07/03 08:56:29;;;;;;;11.05;2.75;;;;;;;;;;5014135;28;20029;-68
2023/07/03 08:58:55;;;;;;;13.85;3.15;;;;;;;;;;5014149;28;20451;-68
2023/07/03 09:01:44;;;;;;;15.40;3.25;;;;;;;;;;5015581;28;20025;-68
2023/07/03 09:04:34;;;;;;;10.18;2.70;;;;;;;;;;5015009;28;20501;-68
2023/07/03 09:07:09;;;;;;;7.22;2.47;;;;;;;;;;5014633;28;20076;-68
2023/07/03 09:09:52;;;;;;;12.85;4.18;;;;;;;;;;5014011;28;20018;-69
2023/07/03 09:12:22;;;;;;;;;;;;;;;;;;5013820;28;20446;-69
2023/07/03 09:15:09;;;;;;;11.52;3.03;;;;;;;;;;5013120;28;20437;-70
2023/07/03 09:17:36;;;;;;;13.40;2.72;;;;;;;;;;5012740;28;20022;-69
2023/07/03 09:20:04;;;;;;;10.13;3.38;;;;;;;;;;5012827;28;20402;-69
2023/07/03 09:22:40;;;;;;;7.50;2.08;;;;;;;;;;5013929;28;20104;-69
2023/07/03 09:25:06;;;;;;;6.95;1.90;;;;;;;;;;5012508;28;20434;-69
2023/07/03 09:27:33;;;;;;;8.50;2.30;;;;;;;;;;5012751;28;20508;-70
2023/07/03 09:30:01;;;;;;;13.77;2.92;;;;;;;;;;5012296;28;20022;-69
2023/07/03 09:32:29;;;;;;;6.20;2.17;;;;;;;;;;5013775;28;20036;-68
2023/07/03 09:35:06;;;;;;;7.03;1.95;;;;;;;;;;5013426;28;20040;-68
2023/07/03 09:37:36;;;;;;;6.57;2.22;;;;;;;;;;5013641;28;20044;-68
2023/07/03 09:40:05;;;;;;;7.03;2.60;;;;;;;;;;5013936;28;20022;-68
2023/07/03 09:42:32;;;;;;;10.52;2.13;;;;;;;;;;5013352;28;20068;-68
2023/07/03 09:44:57;;;;;;;6.90;2.65;;;;;;;;;;5012568;28;20423;-68
2023/07/03 09:47:26;;;;;;;6.28;1.90;;;;;;;;;;5013336;28;20080;-68
2023/07/03 09:49:51;;;;;;;9.38;2.53;;;;;;;;;;5011710;28;20030;-68
2023/07/03 09:52:17;;;;;;;7.90;2.45;;;;;;;;;;5011406;28;20036;-68
2023/07/03 09:54:45;;;;;;;9.75;2.13;;;;;;;;;;5009932;28;20499;-68
2023/07/03 09:57:24;;;;;;;9.20;2.50;;;;;;;;;;4992984;28;20062;-68
2023/07/03 09:59:49;;;;;;;4.63;1.75;;;;;;;;;;4991441;28;20019;-68
2023/07/03 10:02:14;;;;;;;11.43;1.98;;;;;;;;;;4991841;28;20036;-68
2023/07/03 10:04:44;;;;;;;11.35;2.13;;;;;;;;;;4992999;28;20561;-68
2023/07/03 10:07:13;;;;;;;3.50;1.67;;;;;;;;;;5001689;28;20033;-68
2023/07/03 10:09:41;;;;;;;8.32;1.92;;;;;;;;;;5012269;28;20021;-68
2023/07/03 10:12:18;;;;;;;8.32;1.90;;;;;;;;;;5011165;28;20022;-68
2023/07/03 10:15:16;;;;;;;8.48;3.15;;;;;;;;;;5011570;28;20120;-69
2023/07/03 10:17:52;;;;;;;5.55;1.83;;;;;;;;;;5011612;28;20041;-68
2023/07/03 10:20:24;;;;;;;8.82;2.22;;;;;;;;;;5007294;28;20022;-68
2023/07/03 10:22:50;;;;;;;8.05;1.85;;;;;;;;;;5010028;28;20551;-69
2023/07/03 10:25:20;;;;;;;5.82;1.90;;;;;;;;;;5011870;28;20022;-68
2023/07/03 10:27:48;;;;;;;12.52;2.13;;;;;;;;;;5011191;28;20022;-68
2023/07/03 10:30:18;;;;;;;13.75;2.42;;;;;;;;;;5010850;28;20551;-68
2023/07/03 10:32:45;;;;;;;5.80;2.42;;;;;;;;;;5011250;28;20037;-68
2023/07/03 10:35:22;;;;;;;10.20;2.08;;;;;;;;;;5010767;28;20097;-68
2023/07/03 10:38:02;;;;;;;10.63;2.65;;;;;;;;;;5011402;28;20029;-68
2023/07/03 10:40:35;;;;;;;13.40;2.17;;;;;;;;;;5011741;28;20021;-68
2023/07/03 10:43:03;;;;;;;13.00;3.20;;;;;;;;;;5011231;28;20145;-68
2023/07/03 10:45:31;;;;;;;8.82;2.17;;;;;;;;;;5011204;28;20444;-68
2023/07/03 10:48:13;;;;;;;8.90;2.53;;;;;;;;;;5012150;28;20053;-69
2023/07/03 10:51:05;;;;;;;11.30;2.35;;;;;;;;;;4976082;28;1031667;-68
2023/07/03 10:53:41;;;;;;;10.57;1.98;;;;;;;;;;5012921;28;20037;-68
2023/07/03 10:56:22;;;;;;;9.60;1.90;;;;;;;;;;5007651;28;20028;-68
2023/07/03 10:59:05;;;;;;;7.80;2.10;;;;;;;;;;5003617;28;20028;-68
2023/07/03 11:01:47;;;;;;;9.73;1.92;;;;;;;;;;4992017;28;20026;-68
2023/07/03 11:04:21;;;;;;;7.47;2.47;;;;;;;;;;4997105;28;20113;-68
2023/07/03 11:07:05;;;;;;;8.45;2.00;;;;;;;;;;5011098;28;20029;-68
2023/07/03 11:09:50;;;;;;;8.75;2.33;;;;;;;;;;5028074;28;20152;-68
2023/07/03 11:12:23;;;;;;;8.35;2.90;;;;;;;;;;5015899;28;20474;-68
2023/07/03 11:14:55;;;;;;;12.90;1.98;;;;;;;;;;5015357;28;20049;-68
2023/07/03 11:17:44;;;;;;;13.85;2.50;;;;;;;;;;5016101;28;20065;-68
2023/07/03 11:20:16;;;;;;;6.10;1.80;;;;;;;;;;5015095;28;20036;-68
2023/07/03 11:22:53;;;;;;;6.75;1.80;;;;;;;;;;5016611;28;20032;-68
2023/07/03 11:25:32;;;;;;;9.18;3.03;;;;;;;;;;5016643;28;20025;-68
2023/07/03 11:28:12;;;;;;;10.63;1.77;;;;;;;;;;5016835;28;20073;-69
2023/07/03 11:30:42;;;;;;;9.23;2.10;;;;;;;;;;5014629;28;20072;-68
2023/07/03 11:33:08;;;;;;;9.75;3.08;;;;;;;;;;4999073;28;20030;-69
2023/07/03 11:35:33;;;;;;;11.10;2.22;;;;;;;;;;5014825;28;20065;-68
2023/07/03 11:38:06;;;;;;;8.02;2.10;;;;;;;;;;5016009;28;20032;-68
2023/07/03 11:40:36;;;;;;;6.05;1.60;;;;;;;;;;5014702;28;20037;-68
2023/07/03 11:43:17;;;;;;;8.73;2.08;;;;;;;;;;5014990;28;20018;-68
2023/07/03 11:45:58;;;;;;;5.85;2.05;;;;;;;;;;5015766;28;20033;-68
2023/07/03 11:48:38;;;;;;;6.57;2.20;;;;;;;;;;5015322;28;20113;-68
2023/07/03 11:51:05;;;;;;;10.60;2.13;;;;;;;;;;5015557;28;20033;-68
2023/07/03 11:53:34;;;;;;;6.55;1.75;;;;;;;;;;5014614;28;20026;-69
2023/07/03 11:56:00;;;;;;;4.60;1.90;;;;;;;;;;5014069;28;20351;-68
2023/07/03 11:58:29;;;;;;;8.15;1.70;;;;;;;;;;5014366;28;20022;-69
2023/07/03 12:01:26;;;;;;;10.05;2.20;;;;;;;;;;4997994;28;20396;-68
2023/07/03 12:04:00;;;;;;;8.93;2.53;;;;;;;;;;5014253;28;20021;-69
2023/07/03 12:06:38;;;;;;;4.30;1.50;;;;;;;;;;5014052;28;20044;-69
2023/07/03 12:09:19;;;;;;;6.28;1.90;;;;;;;;;;5015227;28;20030;-69
2023/07/03 12:11:59;;;;;;;7.05;1.95;;;;;;;;;;5014459;28;20469;-69
2023/07/03 12:14:40;;;;;;;6.47;1.80;;;;;;;;;;5014873;28;20087;-68
2023/07/03 12:17:31;;;;;;;7.95;2.88;;;;;;;;;;5015217;28;20026;-68
2023/07/03 12:20:17;;;;;;;10.10;3.05;;;;;;;;;;5013569;28;20022;-68
2023/07/03 12:22:50;;;;;;;13.38;2.33;;;;;;;;;;5013936;28;20496;-68
2023/07/03 12:25:21;;;;;;;5.35;1.77;;;;;;;;;;5013697;28;20052;-68
2023/07/03 12:27:48;;;;;;;7.07;2.83;;;;;;;;;;5015088;28;20365;-68
2023/07/03 12:30:27;;;;;;;7.97;1.73;;;;;;;;;;5013421;28;20109;-68
2023/07/03 12:32:53;;;;;;;10.60;2.53;;;;;;;;;;5015123;28;20427;-68
2023/07/03 12:35:24;;;;;;;12.40;1.90;;;;;;;;;;5014922;28;20025;-68
2023/07/03 12:37:52;;;;;;;6.50;2.17;;;;;;;;;;5013318;28;20021;-68
2023/07/03 12:40:19;;;;;;;8.55;2.60;;;;;;;;;;5014799;28;20037;-68
2023/07/03 12:42:45;;;;;;;7.88;1.65;;;;;;;;;;5013570;28;20032;-69
2023/07/03 12:45:26;;;;;;;6.25;2.28;;;;;;;;;;5013145;28;20018;-68
2023/07/03 12:48:16;;;;;;;9.50;1.90;;;;;;;;;;5014477;28;20046;-68
2023/07/03 12:50:46;;;;;;;5.00;2.38;;;;;;;;;;5013087;28;20085;-69
2023/07/03 12:53:11;;;;;;;7.70;2.00;;;;;;;;;;5014736;28;20030;-70
2023/07/03 12:55:37;;;;;;;6.82;2.10;;;;;;;;;;5013132;28;20045;-69
2023/07/03 12:58:04;;;;;;;8.38;2.35;;;;;;;;;;5013128;28;20084;-69
2023/07/03 13:00:31;;;;;;;8.52;2.17;;;;;;;;;;5012728;28;20030;-69
2023/07/03 13:02:58;;;;;;;8.27;2.20;;;;;;;;;;5013000;28;20468;-69
2023/07/03 13:05:23;;;;;;;5.63;1.50;;;;;;;;;;5013125;28;20053;-69
2023/07/03 13:07:49;;;;;;;9.25;2.00;;;;;;;;;;5012724;28;20018;-69
2023/07/03 13:10:17;;;;;;;6.25;2.03;;;;;;;;;;5013490;28;20484;-69
2023/07/03 13:12:43;;;;;;;6.78;1.98;;;;;;;;;;5012874;28;20026;-69
2023/07/03 13:15:10;;;;;;;10.18;1.90;;;;;;;;;;5013119;28;20024;-69
2023/07/03 13:17:38;;;;;;;7.20;1.58;;;;;;;;;;5013809;28;20029;-69
2023/07/03 13:20:17;;;;;;;7.18;2.15;;;;;;;;;;5013499;28;20029;-69
2023/07/03 13:22:48;;;;;;;6.38;2.00;;;;;;;;;;5013944;28;20045;-69
2023/07/03 13:25:39;;;;;;;6.03;2.28;;;;;;;;;;5012428;28;20068;-69
2023/07/03 13:28:19;;;;;;;10.65;2.05;;;;;;;;;;5013777;28;20021;-69
2023/07/03 13:30:45;;;;;;;5.57;2.47;;;;;;;;;;5012311;28;20427;-69
2023/07/03 13:33:12;;;;;;;8.18;2.20;;;;;;;;;;5013552;28;20018;-69
2023/07/03 13:35:44;;;;;;;4.60;1.85;;;;;;;;;;5012318;28;20022;-69
2023/07/03 13:38:24;;;;;;;12.90;2.25;;;;;;;;;;5012412;28;20021;-69
2023/07/03 13:40:50;;;;;;;7.55;2.17;;;;;;;;;;5013597;28;20037;-69
2023/07/03 13:43:26;;;;;;;7.45;1.98;;;;;;;;;;5012454;28;20063;-69
2023/07/03 13:45:54;;;;;;;10.73;3.25;;;;;;;;;;4995927;28;20499;-68
2023/07/03 13:48:19;;;;;;;8.07;1.92;;;;;;;;;;5012091;28;20460;-68
2023/07/03 13:50:45;;;;;;;8.50;3.15;;;;;;;;;;5013251;28;20038;-68
2023/07/03 13:53:11;;;;;;;4.75;1.60;;;;;;;;;;5013078;28;20029;-68
2023/07/03 13:55:37;;;;;;;8.23;1.88;;;;;;;;;;5013574;28;20021;-68
2023/07/03 13:58:02;;;;;;;6.50;1.95;;;;;;;;;;5012147;28;20057;-68
2023/07/03 14:00:27;;;;;;;4.70;2.20;;;;;;;;;;5013045;28;20036;-68
2023/07/03 14:02:53;;;;;;;6.72;1.83;;;;;;;;;;5013733;28;20468;-68
2023/07/03 14:05:19;;;;;;;3.50;1.40;;;;;;;;;;5011349;28;20045;-68
2023/07/03 14:07:44;;;;;;;8.52;1.58;;;;;;;;;;5013305;28;20083;-68
2023/07/03 14:10:10;;;;;;;6.13;1.83;;;;;;;;;;5012792;28;20033;-68
2023/07/03 14:12:35;;;;;;;8.82;2.00;;;;;;;;;;5012960;28;20026;-68
2023/07/03 14:15:08;;;;;;;10.60;2.30;;;;;;;;;;5013005;28;20430;-68
2023/07/03 14:17:33;;;;;;;4.82;1.70;;;;;;;;;;5011978;28;20032;-68
2023/07/03 14:19:59;;;;;;;6.70;1.98;;;;;;;;;;5013699;28;20022;-68
2023/07/03 14:22:24;;;;;;;5.93;2.25;;;;;;;;;;5012599;28;20030;-68
2023/07/03 14:24:50;;;;;;;8.55;2.33;;;;;;;;;;5013132;28;20434;-68
2023/07/03 14:27:15;;;;;;;8.40;2.42;;;;;;;;;;5013150;28;20029;-69
2023/07/03 14:29:40;;;;;;;6.43;1.88;;;;;;;;;;5012730;28;20026;-69
2023/07/03 14:32:07;;;;;;;8.80;2.20;;;;;;;;;;5012878;28;20032;-69
2023/07/03 14:34:32;;;;;;;3.75;2.30;;;;;;;;;;5012702;28;20391;-69
2023/07/03 14:36:58;;;;;;;8.05;2.25;;;;;;;;;;5012918;28;20026;-69
2023/07/03 14:39:24;;;;;;;9.57;2.10;;;;;;;;;;5012468;28;20018;-69
2023/07/03 14:41:49;;;;;;;10.73;3.35;;;;;;;;;;5011871;28;20390;-69
2023/07/03 14:44:15;;;;;;;10.55;1.95;;;;;;;;;;5012846;28;20028;-70
2023/07/03 14:46:40;;;;;;;4.95;1.85;;;;;;;;;;5015653;28;20071;-69